Latest Weather Observations for Darwin Airport

IDD60901

Issued at 5:31 pm CST Thursday 25 August 2016 (issued every 10 minutes, with the page automatically refreshed every 10 minutes)

About weather observations | Map of Darwin area stations | Latest observations for Darwin area | Other Formats
Station Details ID: 014015 Name: DARWIN AIRPORT Lat: -12.42 Lon: 130.89 Height: 30.4 m
Data from the previous 72 hours. | See also: Recent months at Darwin Airport
Date/Time
CST
Temp
°C
App
Temp
°C
Dew
Point
°C
Rel
Hum
%
Delta-T
°C
Wind Press
QNH
hPa
Press
MSL
hPa
Rain since
9am
mm
Dir  Spd
km/h
Gust
km/h
Spd
kts
Gust
kts
25/05:00pm 31.4 28.0 13.7 34 10.7 WNW 24 28 13 15 1008.4 1008.2 0.0
25/04:30pm 31.6 28.2 12.6 31 11.3 NW 22 28 12 15 1008.5 1008.3 0.0
25/04:00pm 31.4 28.1 13.9 34 10.6 NW 24 28 13 15 1008.5 1008.3 0.0
25/03:30pm 32.1 29.2 14.0 33 11.0 NW 22 30 12 16 1008.6 1008.4 0.0
25/03:00pm 32.4 29.2 13.1 31 11.6 NW 22 26 12 14 1008.8 1008.6 0.0
25/02:30pm 32.8 30.3 14.2 32 11.4 WNW 20 26 11 14 1009.1 1008.9 0.0
25/02:00pm 32.5 29.5 13.7 32 11.4 NW 22 26 12 14 1009.4 1009.2 0.0
25/01:30pm 33.3 28.7 8.3 21 14.0 WNW 22 30 12 16 1009.8 1009.6 0.0
25/01:00pm 32.7 29.7 7.5 21 13.9 SSW 13 19 7 10 1010.3 1010.1 0.0
25/12:30pm 32.3 29.5 8.5 23 13.3 SSW 13 20 7 11 1010.8 1010.6 0.0
25/12:00pm 32.0 29.3 9.1 24 12.9 SW 13 19 7 10 1011.2 1011.0 0.0
25/11:30am 31.0 28.9 9.9 27 12.0 SSW 11 17 6 9 1011.5 1011.3 0.0
25/11:00am 30.3 28.5 12.0 32 10.7 SSW 13 19 7 10 1011.7 1011.5 0.0
25/10:30am 29.6 27.5 11.2 32 10.6 SSE 13 19 7 10 1012.0 1011.8 0.0
25/10:00am 29.2 26.9 13.0 37 9.6 S 17 22 9 12 1012.4 1012.2 0.0
25/09:30am 28.4 27.2 15.1 44 8.1 SSE 15 22 8 12 1012.4 1012.2 0.0
25/09:00am 27.5 26.8 16.4 50 6.9 S 15 20 8 11 1012.2 1012.0 0.0
25/08:30am 26.5 26.6 18.3 60 5.2 SSW 15 20 8 11 1012.1 1011.9 0.0
25/08:00am 24.9 25.9 19.5 72 3.5 S 13 17 7 9 1011.8 1011.6 0.0
25/07:30am 23.8 25.9 20.1 80 2.4 SSE 9 13 5 7 1011.5 1011.3 0.0
25/07:00am 23.6 25.4 20.4 82 2.1 SSE 11 15 6 8 1011.1 1010.9 0.0
25/06:30am 23.7 25.2 21.3 86 1.6 S 15 20 8 11 1010.6 1010.4 0.0
25/06:00am 24.3 26.1 21.9 86 1.6 SSW 15 20 8 11 1010.1 1009.9 0.0
25/05:30am 25.2 25.7 20.1 73 3.3 SW 17 19 9 10 1009.4 1009.2 0.0
25/05:00am 24.5 25.7 19.9 75 3.0 WSW 13 15 7 8 1009.4 1009.2 0.0
25/04:30am 23.9 25.9 20.0 79 2.5 WSW 9 11 5 6 1009.0 1008.8 0.0
25/04:00am 22.7 26.1 20.1 85 1.7 WNW 2 7 1 4 1009.2 1009.0 0.0
25/03:30am 23.3 25.9 20.1 82 2.1 WNW 6 7 3 4 1009.3 1009.1 0.0
25/03:00am 23.4 25.9 20.2 82 2.1 W 7 7 4 4 1009.5 1009.3 0.0
25/02:30am 24.3 26.8 20.3 78 2.6 SW 7 7 4 4 1009.7 1009.5 0.0
25/02:00am 24.8 27.0 20.4 76 2.9 SW 9 9 5 5 1009.8 1009.6 0.0
25/01:30am 25.8 27.5 20.1 71 3.7 SW 11 13 6 7 1010.1 1009.9 0.0
25/01:00am 25.9 27.7 21.1 75 3.2 SW 13 17 7 9 1010.5 1010.3 0.0
25/12:30am 25.8 26.9 21.3 76 3.0 SW 17 20 9 11 1010.8 1010.6 0.0
25/12:00am 25.6 28.4 21.5 78 2.7 SW 9 13 5 7 1010.9 1010.7 0.0
 
Date/Time
CST
Temp
°C
App
Temp
°C
Dew
Point
°C
Rel
Hum
%
Delta-T
°C
Wind Press
QNH
hPa
Press
MSL
hPa
Rain since
9am
mm
Dir  Spd
km/h
Gust
km/h
Spd
kts
Gust
kts
24/11:30pm 25.8 27.7 21.3 76 3.0 WSW 13 15 7 8 1010.9 1010.7 0.0
24/11:00pm 25.8 28.0 21.1 75 3.1 WSW 11 15 6 8 1011.0 1010.8 0.0
24/10:30pm 26.1 28.6 21.1 74 3.3 WSW 9 15 5 8 1011.0 1010.8 0.0
24/10:00pm 26.2 27.6 21.1 73 3.4 WSW 15 19 8 10 1010.7 1010.5 0.0
24/09:30pm 26.2 27.3 21.2 74 3.3 WSW 17 22 9 12 1010.7 1010.5 0.0
24/09:00pm 26.4 27.9 21.3 73 3.4 WSW 15 19 8 10 1010.4 1010.2 0.0
24/08:30pm 26.6 27.8 20.7 70 3.9 WSW 15 20 8 11 1010.3 1010.1 0.0
24/08:00pm 26.8 28.0 20.6 69 4.1 WSW 15 20 8 11 1009.9 1009.7 0.0
24/07:30pm 27.1 27.7 21.1 69 4.0 W 19 26 10 14 1009.4 1009.2 0.0
24/07:00pm 27.5 27.4 18.8 59 5.6 W 17 24 9 13 1009.0 1008.8 0.0
24/06:30pm 28.3 27.5 17.2 51 7.0 W 17 24 9 13 1008.6 1008.4 0.0
24/06:00pm 29.5 29.0 18.7 52 7.0 WNW 19 26 10 14 1008.4 1008.2 0.0
24/05:30pm 30.2 28.5 17.3 46 8.2 W 22 28 12 15 1008.0 1007.8 0.0
24/05:00pm 30.5 28.8 17.1 44 8.5 W 22 30 12 16 1007.7 1007.5 0.0
24/04:30pm 31.0 28.7 18.5 47 8.1 WNW 28 33 15 18 1007.7 1007.5 0.0
24/04:00pm 30.7 27.7 18.7 48 7.8 WNW 32 39 17 21 1007.6 1007.4 0.0
24/03:30pm 31.2 28.4 19.1 48 7.9 WNW 32 37 17 20 1007.6 1007.4 0.0
24/03:00pm 31.8 29.6 18.6 45 8.6 WNW 28 33 15 18 1007.9 1007.7 0.0
24/02:30pm 31.8 29.3 18.0 43 8.9 WNW 28 33 15 18 1008.3 1008.1 0.0
24/02:00pm 30.0 29.3 19.5 53 6.9 NW 22 32 12 17 1008.7 1008.5 0.0
24/01:30pm 30.6 28.9 18.0 47 8.1 NW 24 32 13 17 1009.2 1009.0 0.0
24/01:00pm 30.3 29.7 18.4 49 7.7 NW 19 28 10 15 1009.7 1009.5 0.0
24/12:30pm 30.6 30.0 18.4 48 7.9 NW 19 26 10 14 1010.2 1010.0 0.0
24/12:00pm 30.6 30.8 17.6 45 8.3 WNW 13 20 7 11 1010.7 1010.5 0.0
24/11:30am 30.2 30.5 17.8 47 7.9 NW 13 19 7 10 1011.1 1010.9 0.0
24/11:00am 30.3 30.7 17.2 45 8.3 NW 11 17 6 9 1011.6 1011.4 0.0
24/10:30am 29.5 29.4 17.0 47 7.9 WNW 13 19 7 10 1012.0 1011.8 0.0
24/10:00am 29.3 28.9 16.3 45 8.1 W 13 19 7 10 1012.2 1012.0 0.0
24/09:30am 28.6 29.5 18.5 54 6.5 NNW 11 20 6 11 1012.0 1011.8 0.0
24/09:00am 28.0 29.0 19.4 59 5.6 NNW 13 17 7 9 1011.9 1011.7 0.0
24/08:30am 26.9 29.1 21.2 71 3.8 N 11 15 6 8 1011.6 1011.4 0.0
24/08:00am 24.8 27.9 22.1 85 1.8 N 9 11 5 6 1011.3 1011.1 0.0
24/07:30am 22.8 25.5 21.4 92 0.9 NNE 9 11 5 6 1011.1 1010.9 0.0
24/07:00am 22.6 26.9 21.2 92 0.9 CALM 0 0 0 0 1010.9 1010.7 0.0
24/06:30am 22.2 25.1 21.1 93 0.7 N 7 9 4 5 1010.5 1010.3 0.0
24/06:00am 22.1 26.3 21.0 93 0.7 CALM 0 0 0 0 1010.4 1010.2 0.0
24/05:30am 21.5 25.5 20.6 95 0.6 CALM 0 0 0 0 1010.4 1010.2 0.0
24/05:00am 21.7 25.4 20.8 95 0.6 N 2 7 1 4 1010.2 1010.0 0.0
24/04:30am 21.9 26.0 20.7 93 0.8 CALM 0 0 0 0 1010.0 1009.8 0.0
24/04:00am 21.9 24.7 20.5 92 0.9 WSW 6 7 3 4 1009.8 1009.6 0.0
24/03:30am 22.5 25.4 21.1 92 0.9 WSW 7 9 4 5 1009.9 1009.7 0.0
24/03:00am 22.7 25.7 21.2 91 1.0 WSW 7 9 4 5 1009.9 1009.7 0.0
24/02:30am 23.1 26.1 21.3 90 1.2 SW 7 9 4 5 1009.7 1009.5 0.0
24/02:00am 23.9 26.9 21.3 85 1.7 SW 7 9 4 5 1009.9 1009.7 0.0
24/01:30am 24.7 27.5 21.5 82 2.1 SW 9 11 5 6 1009.8 1009.6 0.0
24/01:00am 25.0 27.4 21.5 81 2.3 SSW 11 13 6 7 1009.9 1009.7 0.0
24/12:30am 25.2 27.5 21.4 79 2.5 SSW 11 11 6 6 1010.1 1009.9 0.0
24/12:00am 25.1 27.8 21.3 79 2.5 W 9 13 5 7 1010.2 1010.0 0.0
 
Date/Time
CST
Temp
°C
App
Temp
°C
Dew
Point
°C
Rel
Hum
%
Delta-T
°C
Wind Press
QNH
hPa
Press
MSL
hPa
Rain since
9am
mm
Dir  Spd
km/h
Gust
km/h
Spd
kts
Gust
kts
23/11:30pm 25.3 27.9 21.2 78 2.7 WSW 9 11 5 6 1010.1 1009.9 0.0
23/11:00pm 25.4 28.0 21.2 77 2.8 W 9 11 5 6 1010.1 1009.9 0.0
23/10:30pm 25.5 27.7 21.1 76 2.9 W 11 15 6 8 1010.0 1009.8 0.0
23/10:00pm 25.6 27.3 20.9 75 3.1 W 13 17 7 9 1010.1 1009.9 0.0
23/09:30pm 25.6 27.5 21.4 77 2.8 W 13 15 7 8 1010.0 1009.8 0.0
23/09:00pm 25.8 28.0 21.1 75 3.1 W 11 15 6 8 1009.9 1009.7 0.0
23/08:30pm 26.0 27.7 20.2 70 3.8 W 11 15 6 8 1009.5 1009.3 0.0
23/08:00pm 26.3 27.4 19.7 67 4.3 W 13 17 7 9 1009.2 1009.0 0.0
23/07:30pm 26.6 27.0 19.0 63 4.9 W 15 19 8 10 1008.9 1008.7 0.0
23/07:00pm 27.1 26.9 17.6 56 6.0 W 15 19 8 10 1008.4 1008.2 0.0
23/06:30pm 27.8 26.7 17.3 52 6.6 WNW 19 24 10 13 1008.1 1007.9 0.0
23/06:00pm 28.7 27.8 18.2 53 6.7 W 20 28 11 15 1007.8 1007.6 0.0
23/05:30pm 29.0 27.3 19.0 54 6.5 WNW 26 30 14 16 1007.5 1007.3 0.0
23/05:00pm 29.7 27.9 18.7 51 7.1 WNW 26 30 14 16 1007.4 1007.2 0.0
23/04:30pm 30.3 28.3 18.2 48 7.8 W 26 32 14 17 1007.2 1007.0 0.0
23/04:00pm 29.9 28.6 18.1 49 7.6 WNW 22 33 12 18 1007.3 1007.1 0.0
23/03:30pm 29.8 27.7 16.2 43 8.5 WNW 22 30 12 16 1007.4 1007.2 0.0
23/03:00pm 30.1 28.9 17.4 46 8.1 W 20 26 11 14 1007.8 1007.6 0.0
23/02:30pm 30.8 29.2 16.5 42 9.0 NW 20 28 11 15 1008.0 1007.8 0.0
23/02:00pm 30.1 28.4 16.2 43 8.7 NW 20 28 11 15 1008.6 1008.4 0.0
23/01:30pm 29.2 27.6 17.5 49 7.4 NW 22 30 12 16 1009.2 1009.0 0.0
23/01:00pm 29.9 29.4 18.6 50 7.3 NNW 19 28 10 15 1009.6 1009.4 0.0
23/12:30pm 29.6 29.8 19.3 54 6.7 NNW 17 28 9 15 1010.0 1009.8 0.0
23/12:00pm 29.3 29.4 19.9 57 6.2 NNW 19 28 10 15 1010.5 1010.3 0.0
23/11:30am 28.7 28.9 19.3 56 6.1 NNW 17 24 9 13 1010.8 1010.6 0.0
23/11:00am 28.4 28.4 19.8 59 5.6 NNW 19 33 10 18 1011.2 1011.0 0.0
23/10:30am 29.3 29.8 20.0 57 6.1 WNW 17 24 9 13 1011.5 1011.3 0.0
23/10:00am 28.1 28.5 19.8 60 5.4 NW 17 22 9 12 1011.6 1011.4 0.0
23/09:30am 27.8 28.8 20.2 63 5.0 NW 15 19 8 10 1011.5 1011.3 0.0
23/09:00am 27.0 27.5 20.1 66 4.5 WNW 17 24 9 13 1011.5 1011.3 0.0
23/08:30am 26.4 27.9 20.6 70 3.8 NW 13 17 7 9 1010.9 1010.7 0.0
23/08:00am 25.2 28.2 21.3 79 2.6 NNW 7 9 4 5 1010.5 1010.3 0.0
23/07:30am 22.9 25.4 21.1 89 1.2 NNW 9 13 5 7 1010.3 1010.1 0.0
23/07:00am 21.6 23.3 20.2 92 0.9 NNW 11 13 6 7 1010.0 1009.8 0.0
23/06:30am 21.8 23.9 20.1 90 1.1 N 9 9 5 5 1009.7 1009.5 0.0
23/06:00am 22.2 24.4 20.3 89 1.2 NNW 9 11 5 6 1009.4 1009.2 0.0
23/05:30am 22.8 25.2 20.8 88 1.3 NNW 9 11 5 6 1009.3 1009.1 0.0
23/05:00am 23.7 25.7 20.8 84 1.9 NNW 11 13 6 7 1009.3 1009.1 0.0
23/04:30am 24.3 26.4 21.0 82 2.2 NNW 11 13 6 7 1009.1 1008.9 0.0
23/04:00am 24.6 26.3 21.0 80 2.4 NNW 13 17 7 9 1009.2 1009.0 0.0
23/03:30am 24.7 26.6 20.6 78 2.7 NW 11 13 6 7 1009.3 1009.1 0.0
23/03:00am 25.2 26.6 20.3 74 3.2 NW 13 15 7 8 1009.5 1009.3 0.0
23/02:30am 25.3 26.8 20.6 75 3.1 NW 13 20 7 11 1009.6 1009.4 0.0
23/02:00am 25.4 26.9 21.2 77 2.8 NW 15 20 8 11 1009.7 1009.5 0.0
23/01:30am 25.6 26.8 20.6 74 3.3 WNW 15 19 8 10 1010.0 1009.8 0.0
23/01:00am 25.7 26.6 20.8 74 3.2 NW 17 20 9 11 1010.2 1010.0 0.0
23/12:30am 25.7 27.4 21.6 78 2.7 WNW 15 19 8 10 1010.4 1010.2 0.0
23/12:00am 25.9 27.7 21.2 75 3.1 WNW 13 17 7 9 1010.5 1010.3 0.0
 
Date/Time
CST
Temp
°C
App
Temp
°C
Dew
Point
°C
Rel
Hum
%
Delta-T
°C
Wind Press
QNH
hPa
Press
MSL
hPa
Rain since
9am
mm
Dir  Spd
km/h
Gust
km/h
Spd
kts
Gust
kts
22/11:30pm 26.0 27.1 21.3 75 3.1 WNW 17 22 9 12 1010.6 1010.4 0.0
22/11:00pm 25.8 27.6 21.8 78 2.7 WNW 15 19 8 10 1010.7 1010.5 0.0
22/10:30pm 25.7 27.6 22.0 80 2.5 W 15 19 8 10 1010.5 1010.3 0.0
22/10:00pm 25.8 27.6 21.8 78 2.7 W 15 17 8 9 1010.3 1010.1 0.0
22/09:30pm 25.8 27.6 21.8 78 2.7 W 15 19 8 10 1010.2 1010.0 0.0
22/09:00pm 25.9 27.6 21.7 77 2.8 W 15 19 8 10 1009.9 1009.7 0.0
22/08:30pm 26.0 27.2 21.5 76 3.0 W 17 22 9 12 1009.5 1009.3 0.0
22/08:00pm 26.5 27.2 19.7 66 4.4 W 15 19 8 10 1009.1 1008.9 0.0
22/07:30pm 27.0 26.8 18.6 60 5.4 WNW 17 19 9 10 1008.4 1008.2 0.0
22/07:00pm 27.7 26.4 15.7 48 7.4 WNW 17 20 9 11 1007.9 1007.7 0.0
22/06:30pm 28.4 26.9 16.2 47 7.6 WNW 19 22 10 12 1007.7 1007.5 0.0
22/06:00pm 29.3 27.8 16.3 45 8.1 WNW 19 26 10 14 1007.3 1007.1 0.0

Latest Capital City Observations: Canberra | Sydney | Melbourne | Brisbane | Adelaide | Perth | Hobart | Darwin

Other Formats:

Comma delimited format used in spreadsheet applications
http://www.bom.gov.au/fwo/IDD60901/IDD60901.94120.axf

JavaScript Object Notation format (JSON) in row-major order
http://www.bom.gov.au/fwo/IDD60901/IDD60901.94120.json